sensor_id;sensor_type;location;lat;lon;timestamp;temperature;humidity
66013;DHT22;52783;50.502;8.190;2023-06-14T00:01:01;18.00;99.90
66013;DHT22;52783;50.502;8.190;2023-06-14T00:03:29;18.00;99.90
66013;DHT22;52783;50.502;8.190;2023-06-14T00:05:54;18.00;99.90
66013;DHT22;52783;50.502;8.190;2023-06-14T00:08:22;17.90;99.90
66013;DHT22;52783;50.502;8.190;2023-06-14T00:10:50;18.00;99.90
66013;DHT22;52783;50.502;8.190;2023-06-14T00:13:15;18.00;99.90
66013;DHT22;52783;50.502;8.190;2023-06-14T00:15:41;17.90;99.90
66013;DHT22;52783;50.502;8.190;2023-06-14T00:18:08;17.80;99.90
66013;DHT22;52783;50.502;8.190;2023-06-14T00:20:36;17.80;99.90
66013;DHT22;52783;50.502;8.190;2023-06-14T00:23:02;17.80;99.90
66013;DHT22;52783;50.502;8.190;2023-06-14T00:25:28;17.70;99.90
66013;DHT22;52783;50.502;8.190;2023-06-14T00:27:55;17.70;99.90
66013;DHT22;52783;50.502;8.190;2023-06-14T00:30:21;17.60;99.90
66013;DHT22;52783;50.502;8.190;2023-06-14T00:32:47;17.60;99.90
66013;DHT22;52783;50.502;8.190;2023-06-14T00:35:13;17.60;99.90
66013;DHT22;52783;50.502;8.190;2023-06-14T00:37:39;17.50;99.90
66013;DHT22;52783;50.502;8.190;2023-06-14T00:40:05;17.40;99.90
66013;DHT22;52783;50.502;8.190;2023-06-14T00:42:31;17.40;99.90
66013;DHT22;52783;50.502;8.190;2023-06-14T00:44:57;17.30;99.90
66013;DHT22;52783;50.502;8.190;2023-06-14T00:47:23;17.30;99.90
66013;DHT22;52783;50.502;8.190;2023-06-14T00:49:53;17.30;99.90
66013;DHT22;52783;50.502;8.190;2023-06-14T00:52:19;17.20;99.90
66013;DHT22;52783;50.502;8.190;2023-06-14T00:54:44;17.10;99.90
66013;DHT22;52783;50.502;8.190;2023-06-14T00:57:11;17.00;99.90
66013;DHT22;52783;50.502;8.190;2023-06-14T00:59:42;17.00;99.90
66013;DHT22;52783;50.502;8.190;2023-06-14T01:02:08;17.00;99.90
66013;DHT22;52783;50.502;8.190;2023-06-14T01:04:34;17.00;99.90
66013;DHT22;52783;50.502;8.190;2023-06-14T01:07:23;17.00;99.90
66013;DHT22;52783;50.502;8.190;2023-06-14T01:10:29;17.00;99.90
66013;DHT22;52783;50.502;8.190;2023-06-14T01:13:10;16.90;99.90
66013;DHT22;52783;50.502;8.190;2023-06-14T01:15:39;16.90;99.90
66013;DHT22;52783;50.502;8.190;2023-06-14T01:18:05;16.80;99.90
66013;DHT22;52783;50.502;8.190;2023-06-14T01:20:33;16.90;99.90
66013;DHT22;52783;50.502;8.190;2023-06-14T01:23:01;16.80;99.90
66013;DHT22;52783;50.502;8.190;2023-06-14T01:25:27;16.90;99.90
66013;DHT22;52783;50.502;8.190;2023-06-14T01:27:57;16.80;99.90
66013;DHT22;52783;50.502;8.190;2023-06-14T01:30:23;16.80;99.90
66013;DHT22;52783;50.502;8.190;2023-06-14T01:32:51;16.90;99.90
66013;DHT22;52783;50.502;8.190;2023-06-14T01:35:17;16.90;99.90
66013;DHT22;52783;50.502;8.190;2023-06-14T01:37:43;16.80;99.90
66013;DHT22;52783;50.502;8.190;2023-06-14T01:40:12;16.80;99.90
66013;DHT22;52783;50.502;8.190;2023-06-14T01:42:39;16.80;99.90
66013;DHT22;52783;50.502;8.190;2023-06-14T01:45:06;16.80;99.90
66013;DHT22;52783;50.502;8.190;2023-06-14T01:47:32;16.70;99.90
66013;DHT22;52783;50.502;8.190;2023-06-14T01:49:59;16.80;99.90
66013;DHT22;52783;50.502;8.190;2023-06-14T01:52:24;16.80;99.90
66013;DHT22;52783;50.502;8.190;2023-06-14T01:54:50;16.70;99.90
66013;DHT22;52783;50.502;8.190;2023-06-14T01:57:16;16.70;99.90
66013;DHT22;52783;50.502;8.190;2023-06-14T01:59:41;16.70;99.90
66013;DHT22;52783;50.502;8.190;2023-06-14T02:02:07;16.60;99.90
66013;DHT22;52783;50.502;8.190;2023-06-14T02:04:33;16.60;99.90
66013;DHT22;52783;50.502;8.190;2023-06-14T02:06:58;16.70;99.90
66013;DHT22;52783;50.502;8.190;2023-06-14T02:09:24;16.60;99.90
66013;DHT22;52783;50.502;8.190;2023-06-14T02:11:49;16.60;99.90
66013;DHT22;52783;50.502;8.190;2023-06-14T02:14:15;16.50;99.90
66013;DHT22;52783;50.502;8.190;2023-06-14T02:16:42;16.50;99.90
66013;DHT22;52783;50.502;8.190;2023-06-14T02:19:17;16.50;99.90
66013;DHT22;52783;50.502;8.190;2023-06-14T02:21:43;16.50;99.90
66013;DHT22;52783;50.502;8.190;2023-06-14T02:24:09;16.40;99.90
66013;DHT22;52783;50.502;8.190;2023-06-14T02:26:35;16.40;99.90
66013;DHT22;52783;50.502;8.190;2023-06-14T02:29:03;16.50;99.90
66013;DHT22;52783;50.502;8.190;2023-06-14T02:31:29;16.40;99.90
66013;DHT22;52783;50.502;8.190;2023-06-14T02:33:55;16.40;99.90
66013;DHT22;52783;50.502;8.190;2023-06-14T02:36:20;16.40;99.90
66013;DHT22;52783;50.502;8.190;2023-06-14T02:38:46;16.40;99.90
66013;DHT22;52783;50.502;8.190;2023-06-14T02:41:12;16.30;99.90
66013;DHT22;52783;50.502;8.190;2023-06-14T02:43:37;16.30;99.90
66013;DHT22;52783;50.502;8.190;2023-06-14T02:46:03;16.30;99.90
66013;DHT22;52783;50.502;8.190;2023-06-14T02:48:29;16.30;99.90
66013;DHT22;52783;50.502;8.190;2023-06-14T02:50:55;16.30;99.90
66013;DHT22;52783;50.502;8.190;2023-06-14T02:53:21;16.20;99.90
66013;DHT22;52783;50.502;8.190;2023-06-14T02:55:47;16.20;99.90
66013;DHT22;52783;50.502;8.190;2023-06-14T02:58:19;16.10;99.90
66013;DHT22;52783;50.502;8.190;2023-06-14T03:00:45;16.10;99.90
66013;DHT22;52783;50.502;8.190;2023-06-14T03:03:11;16.10;99.90
66013;DHT22;52783;50.502;8.190;2023-06-14T03:05:44;16.10;99.90
66013;DHT22;52783;50.502;8.190;2023-06-14T03:08:11;16.00;99.90
66013;DHT22;52783;50.502;8.190;2023-06-14T03:10:42;16.00;99.90
66013;DHT22;52783;50.502;8.190;2023-06-14T03:13:08;16.10;99.90
66013;DHT22;52783;50.502;8.190;2023-06-14T03:15:36;16.00;99.90
66013;DHT22;52783;50.502;8.190;2023-06-14T03:18:02;16.00;99.90
66013;DHT22;52783;50.502;8.190;2023-06-14T03:20:29;15.90;99.90
66013;DHT22;52783;50.502;8.190;2023-06-14T03:22:55;15.90;99.90
66013;DHT22;52783;50.502;8.190;2023-06-14T03:25:20;15.90;99.90
66013;DHT22;52783;50.502;8.190;2023-06-14T03:27:47;15.90;99.90
66013;DHT22;52783;50.502;8.190;2023-06-14T03:30:13;15.90;99.90
66013;DHT22;52783;50.502;8.190;2023-06-14T03:32:39;15.90;99.90
66013;DHT22;52783;50.502;8.190;2023-06-14T03:35:05;15.90;99.90
66013;DHT22;52783;50.502;8.190;2023-06-14T03:37:31;15.90;99.90
66013;DHT22;52783;50.502;8.190;2023-06-14T03:39:56;15.80;99.90
66013;DHT22;52783;50.502;8.190;2023-06-14T03:42:22;15.90;99.90
66013;DHT22;52783;50.502;8.190;2023-06-14T03:44:47;15.80;99.90
66013;DHT22;52783;50.502;8.190;2023-06-14T03:47:13;15.80;99.90
66013;DHT22;52783;50.502;8.190;2023-06-14T03:49:38;15.80;99.90
66013;DHT22;52783;50.502;8.190;2023-06-14T03:52:05;15.80;99.90
66013;DHT22;52783;50.502;8.190;2023-06-14T03:54:30;15.80;99.90
66013;DHT22;52783;50.502;8.190;2023-06-14T03:56:58;15.70;99.90
66013;DHT22;52783;50.502;8.190;2023-06-14T03:59:24;15.80;99.90
66013;DHT22;52783;50.502;8.190;2023-06-14T04:01:51;15.90;99.90
66013;DHT22;52783;50.502;8.190;2023-06-14T04:04:16;15.80;99.90
66013;DHT22;52783;50.502;8.190;2023-06-14T04:06:42;15.80;99.90
66013;DHT22;52783;50.502;8.190;2023-06-14T04:09:08;15.80;99.90
66013;DHT22;52783;50.502;8.190;2023-06-14T04:11:34;15.80;99.90
66013;DHT22;52783;50.502;8.190;2023-06-14T04:13:59;15.90;99.90
66013;DHT22;52783;50.502;8.190;2023-06-14T04:16:26;15.90;99.90
66013;DHT22;52783;50.502;8.190;2023-06-14T04:18:51;15.80;99.90
66013;DHT22;52783;50.502;8.190;2023-06-14T04:21:17;15.90;99.90
66013;DHT22;52783;50.502;8.190;2023-06-14T04:23:43;15.90;99.90
66013;DHT22;52783;50.502;8.190;2023-06-14T04:26:09;16.30;99.90
66013;DHT22;52783;50.502;8.190;2023-06-14T04:28:36;16.20;99.90
66013;DHT22;52783;50.502;8.190;2023-06-14T04:31:06;16.70;99.90
66013;DHT22;52783;50.502;8.190;2023-06-14T04:33:36;16.90;99.90
66013;DHT22;52783;50.502;8.190;2023-06-14T04:36:12;17.20;99.90
66013;DHT22;52783;50.502;8.190;2023-06-14T04:38:38;17.40;99.90
66013;DHT22;52783;50.502;8.190;2023-06-14T04:41:04;17.70;99.90
66013;DHT22;52783;50.502;8.190;2023-06-14T04:43:30;17.90;99.90
66013;DHT22;52783;50.502;8.190;2023-06-14T04:45:57;18.00;99.90
66013;DHT22;52783;50.502;8.190;2023-06-14T04:48:22;18.50;99.90
66013;DHT22;52783;50.502;8.190;2023-06-14T04:50:48;18.60;99.90
66013;DHT22;52783;50.502;8.190;2023-06-14T04:53:18;18.80;99.90
66013;DHT22;52783;50.502;8.190;2023-06-14T04:55:46;18.90;99.90
66013;DHT22;52783;50.502;8.190;2023-06-14T04:58:12;18.80;99.90
66013;DHT22;52783;50.502;8.190;2023-06-14T05:00:38;18.90;99.90
66013;DHT22;52783;50.502;8.190;2023-06-14T05:03:04;19.10;99.90
66013;DHT22;52783;50.502;8.190;2023-06-14T05:05:31;19.30;99.90
66013;DHT22;52783;50.502;8.190;2023-06-14T05:07:57;19.60;99.90
66013;DHT22;52783;50.502;8.190;2023-06-14T05:10:24;19.30;99.90
66013;DHT22;52783;50.502;8.190;2023-06-14T05:12:49;19.70;99.90
66013;DHT22;52783;50.502;8.190;2023-06-14T05:15:15;19.60;99.90
66013;DHT22;52783;50.502;8.190;2023-06-14T05:17:41;19.70;99.90
66013;DHT22;52783;50.502;8.190;2023-06-14T05:20:07;20.10;99.90
66013;DHT22;52783;50.502;8.190;2023-06-14T05:22:35;19.90;99.90
66013;DHT22;52783;50.502;8.190;2023-06-14T05:25:01;20.30;99.90
66013;DHT22;52783;50.502;8.190;2023-06-14T05:27:26;20.60;99.90
66013;DHT22;52783;50.502;8.190;2023-06-14T05:29:52;20.20;99.90
66013;DHT22;52783;50.502;8.190;2023-06-14T05:32:21;19.00;99.90
66013;DHT22;52783;50.502;8.190;2023-06-14T05:34:46;20.00;99.90
66013;DHT22;52783;50.502;8.190;2023-06-14T05:37:12;20.50;99.90
66013;DHT22;52783;50.502;8.190;2023-06-14T05:39:38;20.10;99.90
66013;DHT22;52783;50.502;8.190;2023-06-14T05:42:04;20.10;99.90
66013;DHT22;52783;50.502;8.190;2023-06-14T05:44:29;20.60;99.90
66013;DHT22;52783;50.502;8.190;2023-06-14T05:46:55;20.20;99.90
66013;DHT22;52783;50.502;8.190;2023-06-14T05:49:20;19.80;99.90
66013;DHT22;52783;50.502;8.190;2023-06-14T05:51:46;19.30;99.90
66013;DHT22;52783;50.502;8.190;2023-06-14T05:54:11;19.50;99.90
66013;DHT22;52783;50.502;8.190;2023-06-14T05:56:37;19.70;99.90
66013;DHT22;52783;50.502;8.190;2023-06-14T05:59:02;19.80;99.90
66013;DHT22;52783;50.502;8.190;2023-06-14T06:01:28;20.40;99.90
66013;DHT22;52783;50.502;8.190;2023-06-14T06:03:53;21.00;99.90
66013;DHT22;52783;50.502;8.190;2023-06-14T06:06:19;20.30;99.90
66013;DHT22;52783;50.502;8.190;2023-06-14T06:08:44;21.00;99.90
66013;DHT22;52783;50.502;8.190;2023-06-14T06:11:10;21.20;99.90
66013;DHT22;52783;50.502;8.190;2023-06-14T06:13:36;20.50;99.90
66013;DHT22;52783;50.502;8.190;2023-06-14T06:16:02;20.10;99.90
66013;DHT22;52783;50.502;8.190;2023-06-14T06:18:28;19.90;99.90
66013;DHT22;52783;50.502;8.190;2023-06-14T06:20:54;21.00;99.90
66013;DHT22;52783;50.502;8.190;2023-06-14T06:23:19;19.40;99.90
66013;DHT22;52783;50.502;8.190;2023-06-14T06:25:45;19.10;99.90
66013;DHT22;52783;50.502;8.190;2023-06-14T06:28:10;19.90;99.90
66013;DHT22;52783;50.502;8.190;2023-06-14T06:30:36;19.00;99.90
66013;DHT22;52783;50.502;8.190;2023-06-14T06:33:02;19.40;99.90
66013;DHT22;52783;50.502;8.190;2023-06-14T06:35:28;19.00;99.90
66013;DHT22;52783;50.502;8.190;2023-06-14T06:37:55;18.50;99.90
66013;DHT22;52783;50.502;8.190;2023-06-14T06:40:20;18.60;99.90
66013;DHT22;52783;50.502;8.190;2023-06-14T06:42:46;18.60;99.90
66013;DHT22;52783;50.502;8.190;2023-06-14T06:45:12;18.50;99.90
66013;DHT22;52783;50.502;8.190;2023-06-14T06:47:37;19.00;99.90
66013;DHT22;52783;50.502;8.190;2023-06-14T06:50:03;19.10;99.90
66013;DHT22;52783;50.502;8.190;2023-06-14T06:52:29;18.60;99.90
66013;DHT22;52783;50.502;8.190;2023-06-14T06:54:54;19.80;99.90
66013;DHT22;52783;50.502;8.190;2023-06-14T06:57:21;20.30;99.90
66013;DHT22;52783;50.502;8.190;2023-06-14T06:59:49;19.10;99.90
66013;DHT22;52783;50.502;8.190;2023-06-14T07:02:15;19.40;99.90
66013;DHT22;52783;50.502;8.190;2023-06-14T07:04:41;19.50;99.90
66013;DHT22;52783;50.502;8.190;2023-06-14T07:07:06;19.70;99.90
66013;DHT22;52783;50.502;8.190;2023-06-14T07:09:34;19.80;99.90
66013;DHT22;52783;50.502;8.190;2023-06-14T07:12:00;20.10;99.90
66013;DHT22;52783;50.502;8.190;2023-06-14T07:14:25;20.30;99.90
66013;DHT22;52783;50.502;8.190;2023-06-14T07:16:51;21.80;99.90
66013;DHT22;52783;50.502;8.190;2023-06-14T07:19:17;21.90;99.90
66013;DHT22;52783;50.502;8.190;2023-06-14T07:21:42;21.30;99.90
66013;DHT22;52783;50.502;8.190;2023-06-14T07:24:08;22.00;99.90
66013;DHT22;52783;50.502;8.190;2023-06-14T07:26:34;21.50;99.90
66013;DHT22;52783;50.502;8.190;2023-06-14T07:29:01;21.90;99.90
66013;DHT22;52783;50.502;8.190;2023-06-14T07:31:26;22.30;99.90
66013;DHT22;52783;50.502;8.190;2023-06-14T07:33:52;22.00;99.90
66013;DHT22;52783;50.502;8.190;2023-06-14T07:36:18;21.30;99.90
66013;DHT22;52783;50.502;8.190;2023-06-14T07:38:44;21.10;99.90
66013;DHT22;52783;50.502;8.190;2023-06-14T07:41:09;22.30;99.90
66013;DHT22;52783;50.502;8.190;2023-06-14T07:43:35;22.20;99.90
66013;DHT22;52783;50.502;8.190;2023-06-14T07:46:01;22.90;99.90
66013;DHT22;52783;50.502;8.190;2023-06-14T07:48:27;23.00;99.90
66013;DHT22;52783;50.502;8.190;2023-06-14T07:50:52;21.90;99.90
66013;DHT22;52783;50.502;8.190;2023-06-14T07:53:18;22.30;99.90
66013;DHT22;52783;50.502;8.190;2023-06-14T07:55:43;22.50;99.90
66013;DHT22;52783;50.502;8.190;2023-06-14T07:58:09;22.00;99.90
66013;DHT22;52783;50.502;8.190;2023-06-14T08:00:36;23.00;99.90
66013;DHT22;52783;50.502;8.190;2023-06-14T08:03:01;23.00;99.90
66013;DHT22;52783;50.502;8.190;2023-06-14T08:05:27;21.90;99.90
66013;DHT22;52783;50.502;8.190;2023-06-14T08:07:53;21.10;99.90
66013;DHT22;52783;50.502;8.190;2023-06-14T08:10:19;21.50;99.90
66013;DHT22;52783;50.502;8.190;2023-06-14T08:12:45;20.40;99.90
66013;DHT22;52783;50.502;8.190;2023-06-14T08:15:10;20.20;99.90
66013;DHT22;52783;50.502;8.190;2023-06-14T08:17:36;21.80;99.90
66013;DHT22;52783;50.502;8.190;2023-06-14T08:20:02;21.60;99.90
66013;DHT22;52783;50.502;8.190;2023-06-14T08:22:30;22.00;99.90
66013;DHT22;52783;50.502;8.190;2023-06-14T08:24:59;21.70;99.90
66013;DHT22;52783;50.502;8.190;2023-06-14T08:27:25;22.10;99.90
66013;DHT22;52783;50.502;8.190;2023-06-14T08:29:51;21.80;99.90
66013;DHT22;52783;50.502;8.190;2023-06-14T08:32:16;22.40;99.90
66013;DHT22;52783;50.502;8.190;2023-06-14T08:34:42;21.50;99.90
66013;DHT22;52783;50.502;8.190;2023-06-14T08:37:07;20.60;99.90
66013;DHT22;52783;50.502;8.190;2023-06-14T08:39:33;21.00;99.90
66013;DHT22;52783;50.502;8.190;2023-06-14T08:42:01;21.40;99.90
66013;DHT22;52783;50.502;8.190;2023-06-14T08:44:27;22.30;99.90
66013;DHT22;52783;50.502;8.190;2023-06-14T08:46:55;22.70;99.90
66013;DHT22;52783;50.502;8.190;2023-06-14T08:49:22;22.50;99.90
66013;DHT22;52783;50.502;8.190;2023-06-14T08:51:52;23.00;99.90
66013;DHT22;52783;50.502;8.190;2023-06-14T08:54:19;23.30;99.90
66013;DHT22;52783;50.502;8.190;2023-06-14T08:56:46;21.90;99.90
66013;DHT22;52783;50.502;8.190;2023-06-14T08:59:13;23.00;99.90
66013;DHT22;52783;50.502;8.190;2023-06-14T09:01:40;22.40;99.90
66013;DHT22;52783;50.502;8.190;2023-06-14T09:04:06;21.90;99.90
66013;DHT22;52783;50.502;8.190;2023-06-14T09:06:32;23.40;99.90
66013;DHT22;52783;50.502;8.190;2023-06-14T09:08:58;22.40;99.90
66013;DHT22;52783;50.502;8.190;2023-06-14T09:11:24;22.00;99.90
66013;DHT22;52783;50.502;8.190;2023-06-14T09:13:51;22.70;99.90
66013;DHT22;52783;50.502;8.190;2023-06-14T09:16:17;22.90;99.90
66013;DHT22;52783;50.502;8.190;2023-06-14T09:18:44;22.90;99.90
66013;DHT22;52783;50.502;8.190;2023-06-14T09:21:11;22.60;99.90
66013;DHT22;52783;50.502;8.190;2023-06-14T09:23:42;21.50;99.90
66013;DHT22;52783;50.502;8.190;2023-06-14T09:26:09;22.20;99.90
66013;DHT22;52783;50.502;8.190;2023-06-14T09:28:35;22.30;99.90
66013;DHT22;52783;50.502;8.190;2023-06-14T09:31:02;22.80;99.90
66013;DHT22;52783;50.502;8.190;2023-06-14T09:33:27;22.60;99.90
66013;DHT22;52783;50.502;8.190;2023-06-14T09:35:54;21.70;99.90
66013;DHT22;52783;50.502;8.190;2023-06-14T09:38:20;23.30;99.90
66013;DHT22;52783;50.502;8.190;2023-06-14T09:40:46;23.30;99.90
66013;DHT22;52783;50.502;8.190;2023-06-14T09:43:11;23.10;99.90
66013;DHT22;52783;50.502;8.190;2023-06-14T09:45:38;22.70;99.90
66013;DHT22;52783;50.502;8.190;2023-06-14T09:48:06;21.30;99.90
66013;DHT22;52783;50.502;8.190;2023-06-14T09:50:33;22.40;99.90
66013;DHT22;52783;50.502;8.190;2023-06-14T09:53:03;22.50;99.90
66013;DHT22;52783;50.502;8.190;2023-06-14T09:55:31;22.90;99.90
66013;DHT22;52783;50.502;8.190;2023-06-14T09:58:01;23.40;99.90
66013;DHT22;52783;50.502;8.190;2023-06-14T10:00:30;23.40;99.90
66013;DHT22;52783;50.502;8.190;2023-06-14T10:03:03;23.40;99.90
66013;DHT22;52783;50.502;8.190;2023-06-14T10:05:29;24.30;99.90
66013;DHT22;52783;50.502;8.190;2023-06-14T10:08:08;23.80;99.90
66013;DHT22;52783;50.502;8.190;2023-06-14T10:10:34;23.10;99.90
66013;DHT22;52783;50.502;8.190;2023-06-14T10:13:00;22.50;99.90
66013;DHT22;52783;50.502;8.190;2023-06-14T10:15:41;21.60;99.90
66013;DHT22;52783;50.502;8.190;2023-06-14T10:23:45;23.40;99.90
66013;DHT22;52783;50.502;8.190;2023-06-14T10:26:19;23.90;99.90
66013;DHT22;52783;50.502;8.190;2023-06-14T10:29:08;23.00;99.90
66013;DHT22;52783;50.502;8.190;2023-06-14T10:31:45;21.60;99.90
66013;DHT22;52783;50.502;8.190;2023-06-14T10:34:12;21.80;99.90
66013;DHT22;52783;50.502;8.190;2023-06-14T10:36:41;22.30;99.90
66013;DHT22;52783;50.502;8.190;2023-06-14T10:39:10;21.30;99.90
66013;DHT22;52783;50.502;8.190;2023-06-14T10:41:38;21.60;99.90
66013;DHT22;52783;50.502;8.190;2023-06-14T10:46:49;20.30;99.90
66013;DHT22;52783;50.502;8.190;2023-06-14T10:49:19;20.80;99.90
66013;DHT22;52783;50.502;8.190;2023-06-14T10:51:46;21.30;99.90
66013;DHT22;52783;50.502;8.190;2023-06-14T10:54:15;21.80;99.90
66013;DHT22;52783;50.502;8.190;2023-06-14T10:56:46;21.60;99.90
66013;DHT22;52783;50.502;8.190;2023-06-14T10:59:12;21.40;99.90
66013;DHT22;52783;50.502;8.190;2023-06-14T11:01:57;21.60;99.90
66013;DHT22;52783;50.502;8.190;2023-06-14T11:04:43;21.80;99.90
66013;DHT22;52783;50.502;8.190;2023-06-14T11:12:33;21.60;99.90
66013;DHT22;52783;50.502;8.190;2023-06-14T11:15:01;21.80;99.90
66013;DHT22;52783;50.502;8.190;2023-06-14T11:17:26;21.30;99.90
66013;DHT22;52783;50.502;8.190;2023-06-14T11:20:08;21.20;99.90
66013;DHT22;52783;50.502;8.190;2023-06-14T11:22:40;21.10;99.90
66013;DHT22;52783;50.502;8.190;2023-06-14T11:25:09;21.00;99.90
66013;DHT22;52783;50.502;8.190;2023-06-14T11:27:35;20.60;99.90
66013;DHT22;52783;50.502;8.190;2023-06-14T11:30:00;21.20;99.90
66013;DHT22;52783;50.502;8.190;2023-06-14T11:32:51;21.70;99.90
66013;DHT22;52783;50.502;8.190;2023-06-14T11:35:17;22.00;99.90
66013;DHT22;52783;50.502;8.190;2023-06-14T11:37:43;21.20;99.90
66013;DHT22;52783;50.502;8.190;2023-06-14T11:40:11;20.80;99.90
66013;DHT22;52783;50.502;8.190;2023-06-14T11:42:37;20.70;99.90
66013;DHT22;52783;50.502;8.190;2023-06-14T11:45:06;20.80;99.90
66013;DHT22;52783;50.502;8.190;2023-06-14T11:47:32;20.90;99.90
66013;DHT22;52783;50.502;8.190;2023-06-14T11:49:59;21.00;99.90
66013;DHT22;52783;50.502;8.190;2023-06-14T11:52:25;20.90;99.90
66013;DHT22;52783;50.502;8.190;2023-06-14T11:54:51;21.00;99.90
66013;DHT22;52783;50.502;8.190;2023-06-14T11:57:18;20.90;99.90
66013;DHT22;52783;50.502;8.190;2023-06-14T11:59:44;21.40;99.90
66013;DHT22;52783;50.502;8.190;2023-06-14T12:02:21;21.20;99.90
66013;DHT22;52783;50.502;8.190;2023-06-14T12:04:47;20.90;99.90
66013;DHT22;52783;50.502;8.190;2023-06-14T12:07:16;20.40;99.90
66013;DHT22;52783;50.502;8.190;2023-06-14T12:12:24;21.30;99.90
66013;DHT22;52783;50.502;8.190;2023-06-14T12:14:54;21.10;99.90
66013;DHT22;52783;50.502;8.190;2023-06-14T12:17:20;21.80;99.90
66013;DHT22;52783;50.502;8.190;2023-06-14T12:19:46;21.80;99.90
66013;DHT22;52783;50.502;8.190;2023-06-14T12:22:13;21.80;99.90
66013;DHT22;52783;50.502;8.190;2023-06-14T12:24:39;22.20;99.90
66013;DHT22;52783;50.502;8.190;2023-06-14T12:27:05;22.60;99.90
66013;DHT22;52783;50.502;8.190;2023-06-14T12:29:34;22.30;99.90
66013;DHT22;52783;50.502;8.190;2023-06-14T12:32:00;21.90;99.90
66013;DHT22;52783;50.502;8.190;2023-06-14T12:34:26;21.70;99.90
66013;DHT22;52783;50.502;8.190;2023-06-14T12:36:55;21.40;99.90
66013;DHT22;52783;50.502;8.190;2023-06-14T12:39:21;21.80;99.90
66013;DHT22;52783;50.502;8.190;2023-06-14T12:41:47;22.20;99.90
66013;DHT22;52783;50.502;8.190;2023-06-14T12:44:14;22.10;99.90
66013;DHT22;52783;50.502;8.190;2023-06-14T12:46:41;22.40;99.90
66013;DHT22;52783;50.502;8.190;2023-06-14T12:49:13;22.20;99.90
66013;DHT22;52783;50.502;8.190;2023-06-14T12:51:39;22.20;99.90
66013;DHT22;52783;50.502;8.190;2023-06-14T12:54:06;21.90;99.90
66013;DHT22;52783;50.502;8.190;2023-06-14T12:56:31;22.10;99.90
66013;DHT22;52783;50.502;8.190;2023-06-14T12:58:58;22.40;99.90
66013;DHT22;52783;50.502;8.190;2023-06-14T13:01:23;21.70;99.90
66013;DHT22;52783;50.502;8.190;2023-06-14T13:03:49;22.40;99.90
66013;DHT22;52783;50.502;8.190;2023-06-14T13:06:17;21.90;99.90
66013;DHT22;52783;50.502;8.190;2023-06-14T13:08:42;21.90;99.90
66013;DHT22;52783;50.502;8.190;2023-06-14T13:11:08;22.00;99.90
66013;DHT22;52783;50.502;8.190;2023-06-14T13:13:34;22.70;99.90
66013;DHT22;52783;50.502;8.190;2023-06-14T13:16:00;22.30;99.90
66013;DHT22;52783;50.502;8.190;2023-06-14T13:18:25;22.10;99.90
66013;DHT22;52783;50.502;8.190;2023-06-14T13:20:51;21.50;99.90
66013;DHT22;52783;50.502;8.190;2023-06-14T13:23:17;21.20;99.90
66013;DHT22;52783;50.502;8.190;2023-06-14T13:25:42;21.80;99.90
66013;DHT22;52783;50.502;8.190;2023-06-14T13:28:08;22.40;99.90
66013;DHT22;52783;50.502;8.190;2023-06-14T13:30:34;22.20;99.90
66013;DHT22;52783;50.502;8.190;2023-06-14T13:33:00;21.90;99.90
66013;DHT22;52783;50.502;8.190;2023-06-14T13:35:26;21.90;99.90
66013;DHT22;52783;50.502;8.190;2023-06-14T13:37:52;21.60;99.90
66013;DHT22;52783;50.502;8.190;2023-06-14T13:40:17;21.40;99.90
66013;DHT22;52783;50.502;8.190;2023-06-14T13:42:43;21.30;99.90
66013;DHT22;52783;50.502;8.190;2023-06-14T13:45:10;21.30;99.90
66013;DHT22;52783;50.502;8.190;2023-06-14T13:47:36;21.50;99.90
66013;DHT22;52783;50.502;8.190;2023-06-14T13:50:03;22.00;99.90
66013;DHT22;52783;50.502;8.190;2023-06-14T13:52:28;22.40;99.90
66013;DHT22;52783;50.502;8.190;2023-06-14T13:54:54;21.80;99.90
66013;DHT22;52783;50.502;8.190;2023-06-14T13:57:20;21.70;99.90
66013;DHT22;52783;50.502;8.190;2023-06-14T13:59:45;21.50;99.90
66013;DHT22;52783;50.502;8.190;2023-06-14T14:02:11;21.20;99.90
66013;DHT22;52783;50.502;8.190;2023-06-14T14:04:38;21.20;99.90
66013;DHT22;52783;50.502;8.190;2023-06-14T14:07:05;21.50;99.90
66013;DHT22;52783;50.502;8.190;2023-06-14T14:09:32;21.50;99.90
66013;DHT22;52783;50.502;8.190;2023-06-14T14:11:58;22.10;99.90
66013;DHT22;52783;50.502;8.190;2023-06-14T14:14:24;22.30;99.90
66013;DHT22;52783;50.502;8.190;2023-06-14T14:16:50;22.60;99.90
66013;DHT22;52783;50.502;8.190;2023-06-14T14:19:20;22.80;99.90
66013;DHT22;52783;50.502;8.190;2023-06-14T14:21:47;22.90;99.90
66013;DHT22;52783;50.502;8.190;2023-06-14T14:24:12;22.40;99.90
66013;DHT22;52783;50.502;8.190;2023-06-14T14:26:38;22.30;99.90
66013;DHT22;52783;50.502;8.190;2023-06-14T14:29:04;22.00;99.90
66013;DHT22;52783;50.502;8.190;2023-06-14T14:31:29;22.20;99.90
66013;DHT22;52783;50.502;8.190;2023-06-14T14:33:55;22.50;99.90
66013;DHT22;52783;50.502;8.190;2023-06-14T14:36:20;22.10;99.90
66013;DHT22;52783;50.502;8.190;2023-06-14T14:38:46;21.80;99.90
66013;DHT22;52783;50.502;8.190;2023-06-14T14:41:12;22.00;99.90
66013;DHT22;52783;50.502;8.190;2023-06-14T14:43:38;21.80;99.90
66013;DHT22;52783;50.502;8.190;2023-06-14T14:46:04;21.70;99.90
66013;DHT22;52783;50.502;8.190;2023-06-14T14:48:29;22.00;99.90
66013;DHT22;52783;50.502;8.190;2023-06-14T14:50:55;21.80;99.90
66013;DHT22;52783;50.502;8.190;2023-06-14T14:53:20;22.10;99.90
66013;DHT22;52783;50.502;8.190;2023-06-14T14:55:46;22.00;99.90
66013;DHT22;52783;50.502;8.190;2023-06-14T14:58:12;22.10;99.90
66013;DHT22;52783;50.502;8.190;2023-06-14T15:00:38;22.50;99.90
66013;DHT22;52783;50.502;8.190;2023-06-14T15:03:04;22.40;99.90
66013;DHT22;52783;50.502;8.190;2023-06-14T15:05:30;22.60;99.90
66013;DHT22;52783;50.502;8.190;2023-06-14T15:07:55;22.30;99.90
66013;DHT22;52783;50.502;8.190;2023-06-14T15:10:21;22.30;99.90
66013;DHT22;52783;50.502;8.190;2023-06-14T15:12:46;22.20;99.90
66013;DHT22;52783;50.502;8.190;2023-06-14T15:15:12;22.10;99.90
66013;DHT22;52783;50.502;8.190;2023-06-14T15:17:37;22.40;99.90
66013;DHT22;52783;50.502;8.190;2023-06-14T15:20:03;21.90;99.90
66013;DHT22;52783;50.502;8.190;2023-06-14T15:22:29;21.80;99.90
66013;DHT22;52783;50.502;8.190;2023-06-14T15:24:55;21.90;99.90
66013;DHT22;52783;50.502;8.190;2023-06-14T15:27:20;21.60;99.90
66013;DHT22;52783;50.502;8.190;2023-06-14T15:29:46;21.60;99.90
66013;DHT22;52783;50.502;8.190;2023-06-14T15:32:12;21.80;99.90
66013;DHT22;52783;50.502;8.190;2023-06-14T15:34:38;21.70;99.90
66013;DHT22;52783;50.502;8.190;2023-06-14T15:37:05;21.70;99.90
66013;DHT22;52783;50.502;8.190;2023-06-14T15:39:31;21.90;99.90
66013;DHT22;52783;50.502;8.190;2023-06-14T15:41:58;21.70;99.90
66013;DHT22;52783;50.502;8.190;2023-06-14T15:44:23;22.10;99.90